createdAt,value
2023-04-26T00:00:09.362Z,90.97
2023-04-26T00:02:36.753Z,91.19
2023-04-26T00:05:05.438Z,91.27
2023-04-26T00:07:32.777Z,91.37
2023-04-26T00:10:00.063Z,91.62
2023-04-26T00:12:27.303Z,91.88
2023-04-26T00:14:54.461Z,92.17
2023-04-26T00:17:21.500Z,92.23
2023-04-26T00:19:48.673Z,92.61
2023-04-26T00:22:15.711Z,92.61
2023-04-26T00:24:43.706Z,92.91
2023-04-26T00:27:11.024Z,92.84
2023-04-26T00:29:38.286Z,92.74
2023-04-26T00:39:42.057Z,93.11
2023-04-26T00:42:08.957Z,93.15
2023-04-26T00:44:36.638Z,93.26
2023-04-26T00:47:03.875Z,93.17
2023-04-26T00:49:31.298Z,93.07
2023-04-26T00:51:58.376Z,93.19
2023-04-26T00:54:25.900Z,93.42
2023-04-26T00:56:53.496Z,93.47
2023-04-26T00:59:21.464Z,93.55
2023-04-26T01:01:49.410Z,93.62
2023-04-26T01:04:17.067Z,93.70
2023-04-26T01:06:47.171Z,93.62
2023-04-26T01:16:59.148Z,93.74
2023-04-26T01:19:26.296Z,93.73
2023-04-26T01:21:53.209Z,94.07
2023-04-26T01:24:21.635Z,93.99
2023-04-26T01:26:48.791Z,93.87
2023-04-26T01:29:18.176Z,93.93
2023-04-26T01:31:46.291Z,93.97
2023-04-26T01:34:13.810Z,94.10
2023-04-26T01:36:41.162Z,94.14
2023-04-26T01:39:11.289Z,94.26
2023-04-26T01:41:38.327Z,94.49
2023-04-26T01:44:05.696Z,94.58
2023-04-26T01:46:36.083Z,94.88
2023-04-26T01:49:03.258Z,94.99
2023-04-26T01:51:30.348Z,95.04
2023-04-26T01:53:57.257Z,95.39
2023-04-26T01:56:26.146Z,95.53
2023-04-26T01:58:55.661Z,95.75
2023-04-26T02:01:23.905Z,96.09
2023-04-26T02:03:53.846Z,96.28
2023-04-26T02:06:21.943Z,96.54
2023-04-26T02:08:49.796Z,97.00
2023-04-26T02:11:17.064Z,97.15
2023-04-26T02:13:44.279Z,97.61
2023-04-26T02:16:11.560Z,97.96
2023-04-26T02:18:39.210Z,98.03
2023-04-26T02:21:09.071Z,98.45
2023-04-26T02:23:36.260Z,98.77
2023-04-26T02:26:03.395Z,98.79
2023-04-26T02:28:31.687Z,99.02
2023-04-26T02:30:59.055Z,99.06
2023-04-26T02:33:26.286Z,99.24
2023-04-26T02:35:53.326Z,99.10
2023-04-26T02:38:20.903Z,99.57
2023-04-26T02:40:48.164Z,99.74
2023-04-26T02:43:16.243Z,99.34
2023-04-26T02:45:43.495Z,99.66
2023-04-26T02:48:12.084Z,99.37
2023-04-26T02:50:39.242Z,99.35
2023-04-26T02:53:06.560Z,98.98
2023-04-26T02:55:33.804Z,98.71
2023-04-26T02:58:01.044Z,99.15
2023-04-26T03:00:28.797Z,98.83
2023-04-26T03:02:57.241Z,98.36
2023-04-26T03:05:24.878Z,98.40
2023-04-26T03:07:52.823Z,98.36
2023-04-26T03:10:19.952Z,98.21
2023-04-26T03:12:47.136Z,98.08
2023-04-26T03:15:15.596Z,97.99
2023-04-26T03:17:43.477Z,98.24
2023-04-26T03:20:11.849Z,97.63
2023-04-26T03:22:39.512Z,97.72
2023-04-26T03:25:08.109Z,97.55
2023-04-26T03:27:35.236Z,97.57
2023-04-26T03:30:02.329Z,97.42
2023-04-26T03:32:30.144Z,97.26
2023-04-26T03:34:57.435Z,97.16
2023-04-26T03:37:24.872Z,96.93
2023-04-26T03:39:57.643Z,97.07
2023-04-26T03:42:24.911Z,97.19
2023-04-26T03:44:52.037Z,97.20
2023-04-26T03:47:19.095Z,97.27
2023-04-26T03:49:46.243Z,97.22
2023-04-26T03:52:13.151Z,97.16
2023-04-26T03:54:40.134Z,96.87
2023-04-26T03:57:07.310Z,96.83
2023-04-26T03:59:35.170Z,96.97
2023-04-26T04:02:02.196Z,96.71
2023-04-26T04:04:31.443Z,96.34
2023-04-26T04:06:59.659Z,96.16
2023-04-26T04:09:26.835Z,96.26
2023-04-26T04:11:57.861Z,96.34
2023-04-26T04:14:25.718Z,96.55
2023-04-26T04:16:52.865Z,96.55
2023-04-26T04:19:20.116Z,96.80
2023-04-26T04:21:47.808Z,97.02
2023-04-26T04:32:15.402Z,97.44
2023-04-26T04:34:47.723Z,97.78
2023-04-26T04:37:17.326Z,98.11
2023-04-26T04:39:47.569Z,98.06
2023-04-26T04:42:15.568Z,98.27
2023-04-26T04:44:43.146Z,98.66
2023-04-26T04:47:10.580Z,98.87
2023-04-26T04:49:38.675Z,98.80
2023-04-26T04:52:09.784Z,98.96
2023-04-26T04:54:37.023Z,99.11
2023-04-26T04:57:04.103Z,99.52
2023-04-26T04:59:33.933Z,99.56
2023-04-26T05:02:22.186Z,99.88
2023-04-26T05:04:52.629Z,99.83
2023-04-26T05:07:19.646Z,99.94
2023-04-26T05:09:46.772Z,100.00
2023-04-26T05:12:18.111Z,100.00
2023-04-26T05:15:08.146Z,100.00
2023-04-26T05:17:35.557Z,100.00
2023-04-26T05:20:12.748Z,100.00
2023-04-26T05:22:40.231Z,100.00
2023-04-26T05:25:15.228Z,100.00
2023-04-26T05:27:42.908Z,100.00
2023-04-26T05:30:21.247Z,100.00
2023-04-26T05:33:23.795Z,100.00
2023-04-26T05:35:58.622Z,100.00
2023-04-26T05:38:25.801Z,100.00
2023-04-26T05:40:53.507Z,100.00
2023-04-26T05:43:20.890Z,100.00
2023-04-26T05:45:56.302Z,100.00
2023-04-26T05:48:24.921Z,100.00
2023-04-26T05:50:52.392Z,100.00
2023-04-26T05:53:19.931Z,100.00
2023-04-26T05:55:48.324Z,100.00
2023-04-26T05:58:16.127Z,100.00
2023-04-26T06:00:46.586Z,100.00
2023-04-26T06:03:13.943Z,100.00
2023-04-26T06:06:04.271Z,100.00
2023-04-26T06:08:34.623Z,100.00
2023-04-26T06:11:03.038Z,100.00
2023-04-26T06:13:32.135Z,100.00
2023-04-26T06:15:59.775Z,100.00
2023-04-26T06:19:06.993Z,100.00
2023-04-26T06:21:35.926Z,100.00
2023-04-26T06:24:04.002Z,100.00
2023-04-26T06:26:32.539Z,100.00
2023-04-26T06:28:59.697Z,100.00
2023-04-26T06:31:26.894Z,100.00
2023-04-26T06:33:54.501Z,100.00
2023-04-26T06:36:44.066Z,100.00
2023-04-26T06:39:12.065Z,100.00
2023-04-26T06:41:41.893Z,100.00
2023-04-26T06:44:10.118Z,100.00
2023-04-26T06:46:42.052Z,100.00
2023-04-26T06:49:10.616Z,100.00
2023-04-26T06:51:37.650Z,100.00
2023-04-26T06:54:05.488Z,100.00
2023-04-26T06:56:32.641Z,100.00
2023-04-26T06:59:20.302Z,100.00
2023-04-26T07:01:47.553Z,100.00
2023-04-26T07:04:17.377Z,100.00
2023-04-26T07:06:45.562Z,100.00
2023-04-26T07:09:13.679Z,100.00
2023-04-26T07:11:40.824Z,100.00
2023-04-26T07:14:08.262Z,100.00
2023-04-26T07:16:39.656Z,100.00
2023-04-26T07:19:11.328Z,100.00
2023-04-26T07:21:39.807Z,100.00
2023-04-26T07:24:07.038Z,100.00
2023-04-26T07:26:36.463Z,100.00
2023-04-26T07:29:04.121Z,100.00
2023-04-26T07:31:35.940Z,100.00
2023-04-26T07:34:02.923Z,100.00
2023-04-26T07:36:32.996Z,100.00
2023-04-26T07:39:00.041Z,100.00
2023-04-26T07:41:27.299Z,100.00
2023-04-26T07:43:57.097Z,100.00
2023-04-26T07:46:25.632Z,100.00
2023-04-26T07:48:52.721Z,100.00
2023-04-26T07:51:21.142Z,100.00
2023-04-26T07:53:48.781Z,100.00
2023-04-26T07:56:15.775Z,100.00
2023-04-26T07:58:42.816Z,100.00
2023-04-26T08:01:11.826Z,100.00
2023-04-26T08:03:39.176Z,100.00
2023-04-26T08:06:27.976Z,100.00
2023-04-26T08:08:55.438Z,100.00
2023-04-26T08:11:26.898Z,100.00
2023-04-26T08:13:54.490Z,100.00
2023-04-26T08:16:25.247Z,100.00
2023-04-26T08:18:52.431Z,100.00
2023-04-26T08:21:19.850Z,100.00
2023-04-26T08:23:46.914Z,100.00
2023-04-26T08:26:13.791Z,100.00
2023-04-26T08:28:41.093Z,100.00
2023-04-26T08:31:08.422Z,100.00
2023-04-26T08:38:32.674Z,100.00
2023-04-26T11:25:42.503Z,100.00
2023-04-26T11:28:09.650Z,100.00
2023-04-26T11:30:36.589Z,100.00
2023-04-26T11:33:27.890Z,100.00
2023-04-26T11:35:58.145Z,100.00
2023-04-26T11:38:48.832Z,100.00
2023-04-26T11:41:15.877Z,100.00
2023-04-26T11:43:43.102Z,100.00
2023-04-26T11:46:10.505Z,100.00
2023-04-26T11:48:38.881Z,100.00
2023-04-26T11:51:07.869Z,100.00
2023-04-26T11:53:54.492Z,100.00
2023-04-26T11:56:23.209Z,100.00
2023-04-26T11:58:52.173Z,100.00
2023-04-26T12:01:30.153Z,100.00
2023-04-26T12:03:59.831Z,100.00
2023-04-26T12:07:10.530Z,100.00
2023-04-26T12:09:42.247Z,100.00
2023-04-26T12:12:09.107Z,100.00
2023-04-26T12:14:57.448Z,100.00
2023-04-26T12:17:24.728Z,100.00
2023-04-26T12:19:51.930Z,100.00
2023-04-26T12:22:21.415Z,100.00
2023-04-26T12:24:48.994Z,100.00
2023-04-26T12:27:42.669Z,100.00
2023-04-26T12:30:11.213Z,100.00
2023-04-26T12:32:41.967Z,100.00
2023-04-26T12:35:10.020Z,100.00
2023-04-26T12:37:38.072Z,100.00
2023-04-26T12:40:07.408Z,100.00
2023-04-26T12:42:34.461Z,100.00
2023-04-26T12:45:01.538Z,100.00
2023-04-26T12:47:28.735Z,100.00
2023-04-26T12:49:56.612Z,100.00
2023-04-26T12:52:24.869Z,100.00
2023-04-26T12:54:52.308Z,100.00
2023-04-26T12:57:21.229Z,100.00
2023-04-26T12:59:48.760Z,100.00
2023-04-26T13:02:36.429Z,100.00
2023-04-26T13:05:04.743Z,100.00
2023-04-26T13:07:36.895Z,100.00
2023-04-26T13:10:24.231Z,100.00
2023-04-26T13:12:53.992Z,100.00
2023-04-26T13:15:21.881Z,100.00
2023-04-26T13:17:48.902Z,100.00
2023-04-26T13:20:15.995Z,100.00
2023-04-26T13:22:43.791Z,100.00
2023-04-26T13:25:11.352Z,100.00
2023-04-26T13:27:41.337Z,100.00
2023-04-26T13:30:09.065Z,100.00
2023-04-26T13:32:36.442Z,100.00
2023-04-26T13:39:55.491Z,100.00
2023-04-26T13:56:10.784Z,100.00
2023-04-26T19:46:16.107Z,100.00
2023-04-26T20:02:31.281Z,100.00
2023-04-26T20:09:25.171Z,100.00
2023-04-26T20:42:06.340Z,100.00
2023-04-26T20:44:33.224Z,100.00
2023-04-26T20:47:00.349Z,100.00
2023-04-26T20:49:28.545Z,100.00
2023-04-26T20:51:56.298Z,100.00
2023-04-26T20:54:23.288Z,100.00
2023-04-26T20:56:50.278Z,100.00
2023-04-26T20:59:17.202Z,100.00
2023-04-26T21:01:44.223Z,100.00
2023-04-26T21:04:11.380Z,100.00
2023-04-26T21:06:38.819Z,100.00
2023-04-26T21:09:05.705Z,100.00
2023-04-26T21:11:32.762Z,100.00
2023-04-26T21:13:59.597Z,100.00
2023-04-26T21:16:26.580Z,100.00
2023-04-26T21:18:53.485Z,100.00
2023-04-26T21:21:20.520Z,100.00
2023-04-26T21:23:47.497Z,100.00
2023-04-26T21:26:17.323Z,100.00
2023-04-26T21:28:44.195Z,100.00
2023-04-26T21:31:11.766Z,100.00
